Time;durP1;ratioP1;P1;durP2;ratioP2;P2;SDS_P1;SDS_P2;PMS_P1;PMS_P2;Temp;Humidity;BMP_temperature;BMP_pressure;BME280_temperature;BME280_humidity;BME280_pressure;Samples;Min_cycle;Max_cycle;Signal;HPM_P1;HPM_P2
2021/06/02 07:32:34;;;;;;;15.98;12.25;;;18.10;99.90;;;;;;6137530;23;20526;-88
2021/06/02 07:35:01;;;;;;;19.70;12.70;;;18.20;99.90;;;;;;6154624;23;20080;-87
2021/06/02 07:37:28;;;;;;;25.40;12.68;;;18.20;99.90;;;;;;6153862;23;20013;-89
2021/06/02 07:39:55;;;;;;;22.95;12.40;;;18.20;99.90;;;;;;6154236;23;20456;-87
2021/06/02 07:42:22;;;;;;;16.52;13.52;;;18.20;99.90;;;;;;6154208;23;20128;-87
2021/06/02 07:44:49;;;;;;;21.65;13.40;;;18.20;99.90;;;;;;6153736;23;20322;-87
2021/06/02 07:47:16;;;;;;;18.02;12.38;;;18.20;99.90;;;;;;6154086;23;20049;-89
2021/06/02 07:49:54;;;;;;;14.75;11.25;;;18.30;99.90;;;;;;6153919;23;20018;-85
2021/06/02 07:52:22;;;;;;;19.58;13.38;;;18.30;99.90;;;;;;6155363;23;20069;-89
2021/06/02 07:54:49;;;;;;;18.27;12.43;;;18.30;99.90;;;;;;6153968;23;20068;-87
2021/06/02 07:57:16;;;;;;;16.45;11.63;;;18.30;99.90;;;;;;6153894;23;20396;-88
2021/06/02 07:59:43;;;;;;;14.85;10.93;;;18.30;99.90;;;;;;6154517;23;20064;-88
2021/06/02 08:02:10;;;;;;;14.15;10.73;;;18.30;99.90;;;;;;6152563;23;20017;-88
2021/06/02 08:04:37;;;;;;;12.82;10.90;;;18.30;99.90;;;;;;6154316;23;20085;-87
2021/06/02 08:07:07;;;;;;;12.52;10.77;;;18.40;99.90;;;;;;6153572;23;20017;-87
2021/06/02 08:09:37;;;;;;;14.13;10.13;;;18.40;99.90;;;;;;6153960;23;20017;-87
2021/06/02 08:12:06;;;;;;;11.48;9.27;;;18.40;99.90;;;;;;6154852;23;20354;-87
2021/06/02 08:14:34;;;;;;;12.10;9.27;;;18.40;99.90;;;;;;6154232;23;20014;-88
2021/06/02 08:17:01;;;;;;;10.65;9.05;;;18.40;99.90;;;;;;6154071;23;20330;-88
2021/06/02 08:19:28;;;;;;;13.63;9.10;;;18.40;99.90;;;;;;6152878;23;20392;-86
2021/06/02 08:21:55;;;;;;;11.77;9.52;;;18.40;99.90;;;;;;6155197;23;20014;-91
2021/06/02 08:24:22;;;;;;;10.48;8.77;;;18.40;99.90;;;;;;6153258;23;20029;-93
2021/06/02 08:26:49;;;;;;;10.65;9.10;;;18.50;99.90;;;;;;6152934;23;20401;-86
2021/06/02 08:29:16;;;;;;;9.73;8.75;;;18.50;99.90;;;;;;6153384;23;20033;-86
2021/06/02 08:31:43;;;;;;;8.13;7.32;;;18.50;99.90;;;;;;6147741;23;20073;-88
2021/06/02 08:34:10;;;;;;;7.53;6.78;;;18.50;99.90;;;;;;6123775;23;20089;-87
2021/06/02 08:36:37;;;;;;;8.48;7.10;;;18.50;99.90;;;;;;6124417;23;20069;-86
2021/06/02 08:39:07;;;;;;;7.65;6.85;;;18.50;99.90;;;;;;6148237;23;20103;-89
2021/06/02 08:41:38;;;;;;;11.00;8.30;;;18.60;99.90;;;;;;6126204;23;20018;-91
2021/06/02 08:44:09;;;;;;;11.82;9.88;;;18.70;99.90;;;;;;6148371;23;20089;-89
2021/06/02 08:46:37;;;;;;;12.18;9.93;;;18.70;99.90;;;;;;6125985;23;20077;-87
2021/06/02 08:49:10;;;;;;;10.52;9.30;;;18.80;99.90;;;;;;6145842;23;20046;-88
2021/06/02 08:51:37;;;;;;;14.10;10.43;;;18.80;99.90;;;;;;6125830;23;20021;-87
2021/06/02 08:54:04;;;;;;;16.92;12.10;;;18.80;99.90;;;;;;6125135;23;20014;-87
2021/06/02 08:56:34;;;;;;;19.05;12.73;;;18.90;99.90;;;;;;6125652;23;20064;-87
2021/06/02 08:59:02;;;;;;;20.60;14.20;;;18.80;99.90;;;;;;6148723;23;20014;-89
2021/06/02 09:01:29;;;;;;;25.85;16.20;;;18.80;99.90;;;;;;6148207;23;20015;-88
2021/06/02 09:03:58;;;;;;;21.42;15.23;;;18.70;99.90;;;;;;6125609;23;20017;-89
2021/06/02 09:06:26;;;;;;;22.45;17.00;;;18.70;99.90;;;;;;6147911;23;20022;-88
2021/06/02 09:08:54;;;;;;;26.88;17.60;;;18.60;99.90;;;;;;6148255;23;20397;-87
2021/06/02 09:11:22;;;;;;;25.58;19.35;;;18.50;99.90;;;;;;6148193;23;20105;-88
2021/06/02 09:13:49;;;;;;;26.40;19.77;;;18.50;99.90;;;;;;6148403;23;20409;-88
2021/06/02 09:16:22;;;;;;;29.58;20.45;;;18.40;99.90;;;;;;6122581;23;20021;-87
2021/06/02 09:18:58;;;;;;;26.08;18.13;;;18.40;99.90;;;;;;6123915;23;20018;-88
2021/06/02 09:21:34;;;;;;;21.02;17.55;;;18.40;99.90;;;;;;6123083;23;20022;-88
2021/06/02 09:24:01;;;;;;;19.35;16.77;;;18.30;99.90;;;;;;6146835;23;20021;-87
2021/06/02 09:26:46;;;;;;;19.10;16.73;;;18.30;99.90;;;;;;6145843;23;20089;-89
2021/06/02 09:29:15;;;;;;;25.45;18.08;;;18.20;99.90;;;;;;6147701;23;20073;-87
2021/06/02 09:31:44;;;;;;;18.58;16.67;;;18.20;99.90;;;;;;6147858;23;20104;-89
2021/06/02 09:34:14;;;;;;;24.23;19.38;;;18.10;99.90;;;;;;6124905;23;20077;-89
2021/06/02 09:36:42;;;;;;;24.88;19.15;;;18.10;99.90;;;;;;6125107;23;20033;-87
2021/06/02 09:39:15;;;;;;;26.92;20.92;;;18.10;99.90;;;;;;6147453;23;20038;-87
2021/06/02 09:42:02;;;;;;;28.95;20.52;;;18.10;99.90;;;;;;6147071;23;20018;-87
2021/06/02 09:44:30;;;;;;;23.65;20.55;;;18.10;99.90;;;;;;6147715;23;20018;-88
2021/06/02 09:47:01;;;;;;;27.00;20.40;;;18.00;99.90;;;;;;6125610;23;20018;-88
2021/06/02 09:49:29;;;;;;;29.13;23.35;;;18.00;99.90;;;;;;6123379;23;20025;-89
2021/06/02 09:51:56;;;;;;;25.73;22.55;;;18.10;99.90;;;;;;6123618;23;20093;-87
2021/06/02 09:54:24;;;;;;;29.35;23.38;;;18.00;99.90;;;;;;6124450;23;20022;-90
2021/06/02 09:56:51;;;;;;;32.22;25.05;;;18.00;99.90;;;;;;6148317;23;20018;-88
2021/06/02 09:59:19;;;;;;;29.67;25.00;;;18.00;99.90;;;;;;6124827;23;20373;-87
2021/06/02 10:01:59;;;;;;;26.75;22.77;;;18.00;99.90;;;;;;6125417;23;20022;-88
2021/06/02 10:04:39;;;;;;;23.10;20.70;;;18.00;99.90;;;;;;6124540;23;20039;-88
2021/06/02 10:07:19;;;;;;;21.90;19.15;;;18.00;99.90;;;;;;6147731;23;20021;-87
2021/06/02 10:09:46;;;;;;;25.63;21.15;;;18.00;99.90;;;;;;6147863;23;20023;-88
2021/06/02 10:12:13;;;;;;;26.17;22.15;;;18.10;99.90;;;;;;6124418;23;20029;-89
2021/06/02 10:14:53;;;;;;;26.23;20.45;;;18.10;99.90;;;;;;6147176;23;20018;-87
2021/06/02 10:17:28;;;;;;;25.17;21.92;;;18.10;99.90;;;;;;6147524;23;20349;-87
2021/06/02 10:19:57;;;;;;;30.00;21.77;;;18.20;99.90;;;;;;6149146;23;20478;-88
2021/06/02 10:22:29;;;;;;;31.98;20.58;;;18.20;99.90;;;;;;6149536;23;20026;-88
2021/06/02 10:25:01;;;;;;;22.65;19.75;;;18.30;99.90;;;;;;6125832;23;20018;-88
2021/06/02 10:27:29;;;;;;;21.08;17.98;;;18.30;99.90;;;;;;6126516;23;20018;-89
2021/06/02 10:29:56;;;;;;;23.17;17.88;;;18.40;99.90;;;;;;6125678;23;20526;-91
2021/06/02 10:32:24;;;;;;;21.33;19.13;;;18.50;99.90;;;;;;6149312;23;20088;-90
2021/06/02 10:34:52;;;;;;;26.95;18.98;;;18.70;99.90;;;;;;6150160;23;20014;-88
2021/06/02 10:37:22;;;;;;;22.75;17.42;;;18.80;99.90;;;;;;6126437;23;20025;-88
2021/06/02 10:39:57;;;;;;;20.05;17.92;;;19.00;99.90;;;;;;6124552;23;20018;-90
2021/06/02 10:42:37;;;;;;;23.90;17.83;;;19.10;99.90;;;;;;6125020;23;20390;-89
2021/06/02 10:45:20;;;;;;;19.17;17.17;;;19.10;99.90;;;;;;6124756;23;20036;-88
2021/06/02 10:48:03;;;;;;;19.48;17.45;;;19.20;99.90;;;;;;6123857;23;20100;-89
2021/06/02 10:50:37;;;;;;;19.40;17.40;;;19.20;99.90;;;;;;6149372;23;20065;-89
2021/06/02 10:53:20;;;;;;;17.55;15.65;;;19.30;99.90;;;;;;6149406;23;20018;-88
2021/06/02 10:55:49;;;;;;;21.83;16.48;;;19.40;99.90;;;;;;6125726;23;20081;-88
2021/06/02 10:58:26;;;;;;;15.45;13.95;;;19.40;99.90;;;;;;6125962;23;20018;-89
2021/06/02 11:01:16;;;;;;;16.95;13.93;;;19.50;99.90;;;;;;6125538;23;20065;-90
2021/06/02 11:03:45;;;;;;;16.45;13.93;;;19.60;99.90;;;;;;6124999;23;20018;-88
2021/06/02 11:06:15;;;;;;;18.27;14.80;;;19.80;99.90;;;;;;6149090;23;20111;-88
2021/06/02 11:08:48;;;;;;;14.38;12.82;;;19.90;99.90;;;;;;6123829;23;20477;-88
2021/06/02 11:11:21;;;;;;;17.67;15.02;;;20.10;99.90;;;;;;6124390;23;20346;-88
2021/06/02 11:14:16;;;;;;;16.38;14.68;;;20.20;99.90;;;;;;6123609;23;20022;-90
2021/06/02 11:17:02;;;;;;;17.02;15.23;;;20.30;99.90;;;;;;6125376;23;20101;-93
2021/06/02 11:19:41;;;;;;;17.33;14.80;;;20.30;99.90;;;;;;6149497;23;20014;-90
2021/06/02 11:22:25;;;;;;;20.98;14.75;;;20.30;99.90;;;;;;6124847;23;20085;-88
2021/06/02 11:24:54;;;;;;;16.23;14.68;;;20.20;99.90;;;;;;6149808;23;20022;-90
2021/06/02 11:27:21;;;;;;;17.50;15.30;;;20.10;99.90;;;;;;6148962;23;20021;-87
2021/06/02 11:29:48;;;;;;;18.05;16.15;;;20.10;99.90;;;;;;6124978;23;20535;-90
2021/06/02 11:32:16;;;;;;;15.05;13.50;;;20.10;99.90;;;;;;6124300;23;20418;-89
2021/06/02 11:34:51;;;;;;;17.00;15.27;;;20.10;99.90;;;;;;6148302;23;20088;-88
2021/06/02 11:37:24;;;;;;;17.35;15.63;;;20.10;99.90;;;;;;6125952;23;20339;-88
2021/06/02 11:39:54;;;;;;;19.52;15.55;;;20.20;99.90;;;;;;6126220;23;20394;-87
2021/06/02 11:42:39;;;;;;;17.00;15.20;;;20.10;99.90;;;;;;6124101;23;20022;-89
2021/06/02 11:45:21;;;;;;;18.48;16.25;;;20.20;99.90;;;;;;6124234;23;20022;-87
2021/06/02 11:47:56;;;;;;;19.92;17.73;;;20.20;99.90;;;;;;6148816;23;20535;-87
2021/06/02 11:50:25;;;;;;;20.40;18.25;;;20.20;99.90;;;;;;6126183;23;20373;-90
2021/06/02 11:53:01;;;;;;;20.52;18.40;;;20.10;99.90;;;;;;6149666;23;20026;-88
2021/06/02 11:55:29;;;;;;;21.48;18.63;;;20.20;99.90;;;;;;6148859;23;20018;-88
2021/06/02 11:57:56;;;;;;;21.75;19.45;;;20.20;99.90;;;;;;6126400;23;20022;-89
2021/06/02 12:00:28;;;;;;;20.00;18.10;;;20.30;99.90;;;;;;6148239;23;20021;-89
2021/06/02 12:02:58;;;;;;;20.30;18.08;;;20.40;99.90;;;;;;6149306;23;20021;-89
2021/06/02 12:05:32;;;;;;;22.52;19.30;;;20.50;99.90;;;;;;6148697;23;20077;-90
2021/06/02 12:08:00;;;;;;;21.17;19.08;;;20.50;99.90;;;;;;6125422;23;20014;-89
2021/06/02 12:10:33;;;;;;;19.77;16.30;;;20.50;99.90;;;;;;6125242;23;20018;-90
2021/06/02 12:13:02;;;;;;;16.52;14.63;;;20.40;99.90;;;;;;6152382;23;20017;-93
2021/06/02 12:15:46;;;;;;;17.38;15.77;;;20.50;99.90;;;;;;6150036;23;20084;-91
2021/06/02 12:18:42;;;;;;;16.95;15.15;;;20.60;99.90;;;;;;6149046;23;20065;-92
2021/06/02 12:21:28;;;;;;;15.95;14.35;;;20.70;99.90;;;;;;6148805;23;20022;-91
2021/06/02 12:23:58;;;;;;;17.15;15.57;;;20.90;99.90;;;;;;6126843;23;20084;-90
2021/06/02 12:26:30;;;;;;;18.40;16.48;;;21.00;99.90;;;;;;6124732;23;20517;-92
2021/06/02 12:28:59;;;;;;;17.60;15.98;;;21.00;99.90;;;;;;6126898;23;20061;-94
2021/06/02 12:31:28;;;;;;;17.63;15.82;;;20.90;99.90;;;;;;6148901;23;20026;-93
2021/06/02 12:34:12;;;;;;;;;;;20.90;99.90;;;;;;6124121;23;20053;-92
2021/06/02 12:37:03;;;;;;;16.15;14.43;;;21.00;99.90;;;;;;6122585;23;19917;-91
2021/06/02 12:39:34;;;;;;;17.58;15.88;;;21.10;99.90;;;;;;6148434;23;20101;-92
2021/06/02 12:42:03;;;;;;;16.63;15.02;;;21.10;99.90;;;;;;6147441;23;20412;-91
2021/06/02 12:44:32;;;;;;;16.95;15.27;;;21.20;99.90;;;;;;6123567;23;20017;-92
2021/06/02 12:47:17;;;;;;;19.75;17.83;;;21.30;99.90;;;;;;6150816;23;20383;-91
2021/06/02 12:49:48;;;;;;;20.48;18.42;;;21.50;99.90;;;;;;6124325;23;20014;-91
2021/06/02 12:52:35;;;;;;;18.85;17.13;;;21.60;99.90;;;;;;6144095;23;20040;-91
2021/06/02 12:55:09;;;;;;;20.88;18.88;;;21.60;99.90;;;;;;6148460;23;20469;-90
2021/06/02 12:57:36;;;;;;;17.35;15.63;;;21.70;99.90;;;;;;6123783;23;20018;-90
2021/06/02 13:00:04;;;;;;;20.48;17.00;;;21.70;99.90;;;;;;6125816;23;20017;-94
2021/06/02 13:02:35;;;;;;;20.83;17.80;;;21.80;99.90;;;;;;6125522;23;20333;-93
2021/06/02 13:05:04;;;;;;;19.92;17.92;;;21.80;99.90;;;;;;6153135;23;20409;-93
2021/06/02 13:07:34;;;;;;;;;;;21.80;99.90;;;;;;6126192;23;20022;-93
2021/06/02 13:10:19;;;;;;;18.90;16.88;;;21.90;99.90;;;;;;6125005;23;19970;-92
2021/06/02 13:12:54;;;;;;;17.98;16.00;;;22.00;99.90;;;;;;6147773;23;20063;-90
2021/06/02 13:15:31;;;;;;;18.15;16.38;;;21.90;99.90;;;;;;6148606;23;20414;-93
2021/06/02 13:18:00;;;;;;;16.17;14.68;;;21.90;99.90;;;;;;6148620;23;20100;-92
2021/06/02 13:20:39;;;;;;;16.05;14.55;;;22.00;99.90;;;;;;6148910;23;20029;-92
2021/06/02 13:23:09;;;;;;;16.95;15.32;;;22.10;99.90;;;;;;6125552;23;20517;-92
2021/06/02 13:25:36;;;;;;;16.17;14.55;;;22.20;99.90;;;;;;6150371;23;20021;-92
2021/06/02 13:28:06;;;;;;;16.98;15.18;;;22.40;99.90;;;;;;6124531;23;20053;-94
2021/06/02 13:30:40;;;;;;;17.05;15.35;;;22.40;99.90;;;;;;6125471;23;20018;-92
2021/06/02 13:33:07;;;;;;;17.63;15.70;;;22.40;99.90;;;;;;6122951;23;20458;-93
2021/06/02 13:35:35;;;;;;;17.98;16.00;;;22.50;99.90;;;;;;6148278;23;20021;-93
2021/06/02 13:38:03;;;;;;;18.45;16.10;;;22.60;99.90;;;;;;6124735;23;20484;-91
2021/06/02 13:40:37;;;;;;;17.27;15.57;;;22.70;99.90;;;;;;6128443;23;20018;-92
2021/06/02 13:43:18;;;;;;;15.07;13.57;;;22.90;99.90;;;;;;6094109;23;20074;-92
2021/06/02 13:46:08;;;;;;;15.60;14.00;;;23.00;99.90;;;;;;6094623;23;20014;-92
2021/06/02 13:48:36;;;;;;;16.98;15.32;;;23.10;99.90;;;;;;6123342;23;20065;-92
2021/06/02 13:51:29;;;;;;;15.97;14.37;;;23.20;99.90;;;;;;6122158;23;20022;-92
2021/06/02 13:54:17;;;;;;;16.83;15.20;;;23.40;99.90;;;;;;6113769;23;20392;-91
2021/06/02 13:56:48;;;;;;;17.42;15.68;;;23.40;99.90;;;;;;6145355;23;20068;-91
2021/06/02 13:59:19;;;;;;;16.17;14.48;;;23.40;99.90;;;;;;6122137;23;20069;-91
2021/06/02 14:01:47;;;;;;;16.08;14.35;;;23.40;99.90;;;;;;6121913;23;20458;-91
2021/06/02 14:04:19;;;;;;;16.50;14.97;;;23.40;99.90;;;;;;6144439;23;20026;-90
2021/06/02 14:06:49;;;;;;;16.40;14.80;;;23.50;99.90;;;;;;6146715;23;20022;-90
2021/06/02 14:09:20;;;;;;;16.58;14.70;;;23.50;99.90;;;;;;6146477;23;20025;-90
2021/06/02 14:11:47;;;;;;;14.38;12.95;;;23.50;99.90;;;;;;6147250;23;20041;-91
2021/06/02 14:14:15;;;;;;;15.18;13.75;;;23.50;99.90;;;;;;6146428;23;20034;-90
2021/06/02 14:16:42;;;;;;;16.63;14.55;;;23.40;99.90;;;;;;6124126;23;20022;-89
2021/06/02 14:19:09;;;;;;;17.75;15.38;;;23.40;99.90;;;;;;6146562;23;20038;-91
2021/06/02 14:21:37;;;;;;;14.68;12.95;;;23.30;99.90;;;;;;6147565;23;20462;-89
2021/06/02 14:24:06;;;;;;;15.48;13.88;;;23.30;99.90;;;;;;6147612;23;20026;-89
2021/06/02 14:26:34;;;;;;;13.68;12.38;;;23.40;99.90;;;;;;6147997;23;20073;-89
2021/06/02 14:29:04;;;;;;;15.15;13.55;;;23.50;99.90;;;;;;6147929;23;20014;-91
2021/06/02 14:31:32;;;;;;;14.48;12.98;;;23.50;99.90;;;;;;6122632;23;20018;-90
2021/06/02 14:33:59;;;;;;;16.97;14.93;;;23.50;99.90;;;;;;6147715;23;20014;-90
2021/06/02 14:36:27;;;;;;;15.50;14.10;;;23.60;99.90;;;;;;6147211;23;20018;-90
2021/06/02 14:38:54;;;;;;;16.40;14.85;;;23.50;99.90;;;;;;6125249;23;20317;-92
2021/06/02 14:41:21;;;;;;;19.38;15.60;;;23.50;99.90;;;;;;6146763;23;20338;-86
2021/06/02 14:43:48;;;;;;;14.52;12.73;;;23.40;99.90;;;;;;6147447;23;20018;-87
2021/06/02 14:46:15;;;;;;;15.18;13.57;;;23.40;99.90;;;;;;6146973;23;20022;-85
2021/06/02 14:48:42;;;;;;;14.65;13.25;;;23.50;99.90;;;;;;6147269;23;20097;-85
2021/06/02 14:51:10;;;;;;;14.05;12.82;;;23.60;99.90;;;;;;6123232;23;20092;-88
2021/06/02 14:53:37;;;;;;;13.50;12.30;;;23.60;99.90;;;;;;6124733;23;20096;-91
2021/06/02 14:56:05;;;;;;;16.05;14.43;;;23.60;99.90;;;;;;6124137;23;20073;-89
2021/06/02 14:58:32;;;;;;;14.93;13.53;;;23.70;99.90;;;;;;6122400;23;20021;-90
2021/06/02 15:00:59;;;;;;;15.68;13.63;;;23.70;99.90;;;;;;6147966;23;20092;-86
2021/06/02 15:03:27;;;;;;;15.50;13.88;;;23.70;99.90;;;;;;6145510;23;20025;-90
2021/06/02 15:05:54;;;;;;;16.07;14.63;;;23.70;99.90;;;;;;6145890;23;20528;-87
2021/06/02 15:08:22;;;;;;;13.85;12.50;;;23.70;99.90;;;;;;6124004;23;20022;-87
2021/06/02 15:10:51;;;;;;;28.03;14.87;;;23.60;99.90;;;;;;6124516;23;20073;-86
2021/06/02 15:13:21;;;;;;;29.55;16.10;;;23.70;99.90;;;;;;6125569;23;20253;-85
2021/06/02 15:15:49;;;;;;;18.45;15.48;;;23.60;99.90;;;;;;6124572;23;20073;-86
2021/06/02 15:18:17;;;;;;;24.10;14.10;;;23.50;99.90;;;;;;6148338;23;20114;-88
2021/06/02 15:20:44;;;;;;;21.02;15.65;;;23.40;99.90;;;;;;6122607;23;20022;-87
2021/06/02 15:23:13;;;;;;;18.30;13.93;;;23.30;99.90;;;;;;6123928;23;20021;-87
2021/06/02 15:25:46;;;;;;;18.48;13.98;;;23.20;99.90;;;;;;6126167;23;20054;-89
2021/06/02 15:28:16;;;;;;;17.90;13.25;;;23.10;99.90;;;;;;6123908;23;20458;-89
2021/06/02 15:30:43;;;;;;;18.42;13.40;;;23.00;99.90;;;;;;6147832;23;20073;-86
2021/06/02 15:33:11;;;;;;;20.80;12.48;;;22.90;99.90;;;;;;6148401;23;20386;-85
2021/06/02 15:35:40;;;;;;;15.45;12.40;;;22.80;99.90;;;;;;6148823;23;20469;-85
2021/06/02 15:38:10;;;;;;;20.70;13.30;;;22.80;99.90;;;;;;6148734;23;20018;-88
2021/06/02 15:40:37;;;;;;;15.30;13.15;;;22.60;99.90;;;;;;6126508;23;20315;-86
2021/06/02 15:43:04;;;;;;;15.77;13.23;;;22.50;99.90;;;;;;6149035;23;20069;-85
2021/06/02 15:45:32;;;;;;;15.75;13.48;;;22.40;99.90;;;;;;6126260;23;20338;-91
2021/06/02 15:48:01;;;;;;;13.75;12.07;;;22.20;99.90;;;;;;6149189;23;20389;-88
2021/06/02 15:50:31;;;;;;;14.32;10.90;;;22.20;99.90;;;;;;6147580;23;20018;-89
2021/06/02 15:53:02;;;;;;;14.77;10.80;;;22.10;99.90;;;;;;6149374;23;20022;-93
2021/06/02 15:55:30;;;;;;;12.02;10.65;;;22.00;99.90;;;;;;6146945;23;20022;-90
2021/06/02 15:58:03;;;;;;;12.30;11.00;;;22.00;99.90;;;;;;6149463;23;20416;-93
2021/06/02 16:00:35;;;;;;;12.63;10.55;;;21.90;99.90;;;;;;6147977;23;20248;-90
2021/06/02 16:03:02;;;;;;;13.33;10.37;;;21.90;99.90;;;;;;6149004;23;20038;-90
2021/06/02 16:05:29;;;;;;;13.13;10.95;;;21.90;99.90;;;;;;6126266;23;20551;-92
2021/06/02 16:07:56;;;;;;;12.43;9.77;;;21.80;99.90;;;;;;6147859;23;20018;-92
2021/06/02 16:10:23;;;;;;;11.00;9.90;;;21.80;99.90;;;;;;6147866;23;20013;-91
2021/06/02 16:12:56;;;;;;;13.20;9.80;;;21.90;99.90;;;;;;6149556;23;20084;-93
2021/06/02 16:15:25;;;;;;;9.40;8.50;;;22.00;99.90;;;;;;6148520;23;20017;-90
2021/06/02 16:17:52;;;;;;;;;;;22.00;99.90;;;;;;6150333;23;20018;-91
2021/06/02 16:20:20;;;;;;;10.93;7.70;;;21.90;99.90;;;;;;6125430;23;19976;-89
2021/06/02 16:22:49;;;;;;;12.38;7.90;;;21.90;99.90;;;;;;6148661;23;20458;-91
2021/06/02 16:25:19;;;;;;;12.15;8.30;;;21.80;99.90;;;;;;6149360;23;20017;-90
2021/06/02 16:27:50;;;;;;;;;;;21.60;99.90;;;;;;6149061;23;20018;-91
2021/06/02 16:30:20;;;;;;;9.43;7.32;;;21.50;99.90;;;;;;6122490;23;19995;-90
2021/06/02 16:33:04;;;;;;;9.15;7.97;;;21.40;99.90;;;;;;6146993;23;20022;-92
2021/06/02 16:35:32;;;;;;;9.00;7.45;;;21.30;99.90;;;;;;6124585;23;20022;-93
2021/06/02 16:37:59;;;;;;;14.02;8.20;;;21.20;99.90;;;;;;6149633;23;20024;-90
2021/06/02 16:40:26;;;;;;;10.93;8.07;;;20.90;99.90;;;;;;6148041;23;20016;-94
2021/06/02 16:42:54;;;;;;;11.85;7.57;;;20.90;99.90;;;;;;6148710;23;20026;-93
2021/06/02 16:45:21;;;;;;;12.90;9.07;;;20.80;99.90;;;;;;6125592;23;20405;-94
2021/06/02 16:47:49;;;;;;;12.65;9.23;;;20.80;99.90;;;;;;6150623;23;20072;-94
2021/06/02 16:50:18;;;;;;;12.52;8.68;;;20.60;99.90;;;;;;6125966;23;20356;-92
2021/06/02 16:52:50;;;;;;;10.30;8.50;;;20.50;99.90;;;;;;6149620;23;20532;-93
2021/06/02 16:55:19;;;;;;;16.08;9.48;;;20.50;99.90;;;;;;6126108;23;20100;-94
2021/06/02 16:57:46;;;;;;;14.20;9.25;;;20.50;99.90;;;;;;6148427;23;20010;-92
2021/06/02 17:00:19;;;;;;;15.33;9.43;;;20.40;99.90;;;;;;6148485;23;20353;-90
2021/06/02 17:02:47;;;;;;;16.20;9.65;;;20.20;99.90;;;;;;6149261;23;20254;-93
2021/06/02 17:05:14;;;;;;;17.17;10.97;;;20.10;99.90;;;;;;6148338;23;20045;-90
2021/06/02 17:07:43;;;;;;;14.70;10.73;;;19.90;99.90;;;;;;6149035;23;20018;-93
2021/06/02 17:10:11;;;;;;;15.23;11.20;;;19.80;99.90;;;;;;6148719;23;20020;-90
2021/06/02 17:12:38;;;;;;;15.90;10.60;;;19.60;99.90;;;;;;6124479;23;20017;-91
2021/06/02 17:15:09;;;;;;;14.02;11.00;;;19.50;99.90;;;;;;6147952;23;20022;-91
2021/06/02 17:17:57;;;;;;;14.93;9.90;;;19.30;99.90;;;;;;6147882;23;20069;-92
2021/06/02 17:20:37;;;;;;;16.17;10.68;;;19.40;99.90;;;;;;6123972;23;20014;-93
2021/06/02 17:23:07;;;;;;;12.18;10.20;;;19.40;99.90;;;;;;6125538;23;20068;-94
2021/06/02 17:25:37;;;;;;;11.50;9.15;;;19.30;99.90;;;;;;6148799;23;20081;-95
2021/06/02 17:28:09;;;;;;;12.23;9.43;;;19.30;99.90;;;;;;6148807;23;20084;-94
2021/06/02 17:30:37;;;;;;;13.25;9.95;;;19.20;99.90;;;;;;6149616;23;20390;-94
2021/06/02 17:33:05;;;;;;;;;;;19.10;99.90;;;;;;6125674;23;20028;-92
2021/06/02 17:35:33;;;;;;;13.75;10.57;;;19.00;99.90;;;;;;6148654;23;20359;-93
2021/06/02 17:38:01;;;;;;;23.63;12.40;;;18.90;99.90;;;;;;6149695;23;20345;-94
2021/06/02 17:40:28;;;;;;;17.50;12.70;;;18.70;99.90;;;;;;6148780;23;20021;-93
2021/06/02 17:42:57;;;;;;;24.25;13.57;;;18.60;99.90;;;;;;6149304;23;20026;-91
2021/06/02 17:45:25;;;;;;;19.83;12.90;;;18.40;99.90;;;;;;6146726;23;21010;-93
2021/06/02 17:47:52;;;;;;;19.90;12.07;;;18.40;99.90;;;;;;6124216;23;20018;-94
2021/06/02 17:50:22;;;;;;;20.77;12.68;;;18.40;99.90;;;;;;6147646;23;20018;-94
2021/06/02 17:53:03;;;;;;;21.75;13.80;;;18.20;99.90;;;;;;6147981;23;20058;-93
2021/06/02 17:55:31;;;;;;;25.88;13.27;;;18.20;99.90;;;;;;6147941;23;20073;-92
2021/06/02 17:57:59;;;;;;;17.20;11.70;;;18.10;99.90;;;;;;6148895;23;20050;-94
2021/06/02 18:00:27;;;;;;;19.48;12.95;;;18.00;99.90;;;;;;6148340;23;20022;-92
2021/06/02 18:02:54;;;;;;;19.10;11.68;;;18.00;99.90;;;;;;6148850;23;20077;-93
2021/06/02 18:05:21;;;;;;;22.77;11.90;;;17.90;99.90;;;;;;6125148;23;20029;-91
2021/06/02 18:07:48;;;;;;;18.33;12.60;;;17.80;99.90;;;;;;6124457;23;20077;-93
2021/06/02 18:10:16;;;;;;;21.13;12.15;;;17.80;99.90;;;;;;6146674;23;20084;-91
2021/06/02 18:12:46;;;;;;;21.05;11.75;;;17.70;99.90;;;;;;6123931;23;20029;-90
2021/06/02 18:15:14;;;;;;;18.83;12.15;;;17.70;99.90;;;;;;6123114;23;20535;-90
2021/06/02 18:17:47;;;;;;;19.95;11.18;;;17.60;99.90;;;;;;6148600;23;20014;-93
2021/06/02 18:20:15;;;;;;;17.38;10.60;;;17.60;99.90;;;;;;6146345;23;20014;-90
2021/06/02 18:22:50;;;;;;;17.23;11.00;;;17.50;99.90;;;;;;6147861;23;20017;-90
2021/06/02 18:25:21;;;;;;;15.70;11.13;;;17.50;99.90;;;;;;6147351;23;20415;-91
2021/06/02 18:27:49;;;;;;;16.35;11.00;;;17.40;99.90;;;;;;6148624;23;20505;-90
2021/06/02 18:30:18;;;;;;;19.80;10.98;;;17.40;99.90;;;;;;6132649;23;20026;-91
2021/06/02 18:32:46;;;;;;;19.00;11.05;;;17.40;99.90;;;;;;6145868;23;20040;-91
2021/06/02 18:35:14;;;;;;;15.77;10.63;;;17.30;99.90;;;;;;6146577;23;20089;-91
2021/06/02 18:37:41;;;;;;;17.70;13.00;;;17.30;99.90;;;;;;6138212;23;20025;-90
2021/06/02 18:40:09;;;;;;;19.52;11.15;;;17.30;99.90;;;;;;6122551;23;20026;-93
2021/06/02 18:42:36;;;;;;;15.57;10.60;;;17.30;99.90;;;;;;6124187;23;20017;-92
2021/06/02 18:45:05;;;;;;;15.52;10.50;;;17.20;99.90;;;;;;6148964;23;20022;-94
2021/06/02 18:47:32;;;;;;;15.10;9.85;;;17.10;99.90;;;;;;6123389;23;20022;-94
2021/06/02 18:49:59;;;;;;;10.40;8.63;;;17.00;99.90;;;;;;6145946;23;20022;-90
2021/06/02 18:52:26;;;;;;;15.27;9.00;;;17.00;99.90;;;;;;6144995;23;20339;-90
2021/06/02 18:54:53;;;;;;;16.63;8.98;;;17.00;99.90;;;;;;6143808;23;20457;-90
2021/06/02 18:57:20;;;;;;;14.70;9.10;;;17.00;99.90;;;;;;6119750;23;20033;-89
2021/06/02 18:59:47;;;;;;;17.02;9.00;;;16.90;99.90;;;;;;6121818;23;20029;-90
2021/06/02 19:02:14;;;;;;;12.77;8.30;;;16.90;99.90;;;;;;6122164;23;20025;-89
2021/06/02 19:04:41;;;;;;;10.25;7.90;;;16.90;99.90;;;;;;6147344;23;20041;-90
2021/06/02 19:07:08;;;;;;;10.95;8.20;;;16.80;99.90;;;;;;6146403;23;20017;-90
2021/06/02 19:09:35;;;;;;;13.73;8.02;;;16.80;99.90;;;;;;6147076;23;20025;-89
2021/06/02 19:12:03;;;;;;;13.32;7.50;;;16.80;99.90;;;;;;6121530;23;20029;-92
2021/06/02 19:14:30;;;;;;;14.43;7.88;;;16.70;99.90;;;;;;6145989;23;20022;-87
2021/06/02 19:16:57;;;;;;;11.45;7.25;;;16.70;99.90;;;;;;6123169;23;20014;-87
2021/06/02 19:19:24;;;;;;;11.95;7.47;;;16.60;99.90;;;;;;6122949;23;20026;-88
2021/06/02 19:21:51;;;;;;;9.73;6.78;;;16.60;99.90;;;;;;6146659;23;20081;-88
2021/06/02 19:24:18;;;;;;;9.27;6.63;;;16.50;99.90;;;;;;6122960;23;20022;-88
2021/06/02 19:26:45;;;;;;;10.10;5.90;;;16.50;99.90;;;;;;6146051;23;20072;-88
2021/06/02 19:29:12;;;;;;;9.30;6.30;;;16.40;99.90;;;;;;6122233;23;20030;-90
2021/06/02 19:31:40;;;;;;;10.52;6.38;;;16.40;99.90;;;;;;6145129;23;20018;-88
2021/06/02 19:34:06;;;;;;;11.07;6.38;;;16.30;99.90;;;;;;6145529;23;20068;-89
2021/06/02 19:36:33;;;;;;;9.98;6.95;;;16.40;99.90;;;;;;6146434;23;20018;-89
2021/06/02 19:39:00;;;;;;;9.25;6.35;;;16.30;99.90;;;;;;6146452;23;20080;-88
2021/06/02 19:41:27;;;;;;;12.43;7.07;;;16.30;99.90;;;;;;6144445;23;20485;-88
2021/06/02 19:43:54;;;;;;;14.50;7.38;;;16.40;99.90;;;;;;6121926;23;20069;-89
2021/06/02 19:46:21;;;;;;;13.50;7.28;;;16.30;99.90;;;;;;6121659;23;20088;-87
2021/06/02 19:48:48;;;;;;;15.65;8.25;;;16.20;99.90;;;;;;6123159;23;20032;-89
2021/06/02 19:51:15;;;;;;;11.30;7.45;;;16.20;99.90;;;;;;6144959;23;20073;-88
2021/06/02 19:53:42;;;;;;;16.80;8.75;;;16.10;99.90;;;;;;6146575;23;20534;-88
2021/06/02 19:56:09;;;;;;;11.82;7.63;;;16.00;99.90;;;;;;6145660;23;20466;-89
2021/06/02 19:58:36;;;;;;;13.45;8.15;;;15.90;99.90;;;;;;6146188;23;20465;-87
2021/06/02 20:01:03;;;;;;;12.50;7.38;;;15.90;99.90;;;;;;6121480;23;20037;-88
2021/06/02 20:03:30;;;;;;;12.82;7.78;;;15.80;99.90;;;;;;6145977;23;20417;-89
2021/06/02 20:05:57;;;;;;;11.82;6.72;;;15.70;99.90;;;;;;6145146;23;20362;-89
2021/06/02 20:08:24;;;;;;;14.55;8.68;;;15.70;99.90;;;;;;6122137;23;20073;-88
2021/06/02 20:10:51;;;;;;;14.95;8.25;;;15.60;99.90;;;;;;6145839;23;20030;-88
2021/06/02 20:13:18;;;;;;;20.40;7.95;;;15.60;99.90;;;;;;6122484;23;20041;-85
2021/06/02 20:15:45;;;;;;;11.27;7.40;;;15.50;99.90;;;;;;6119474;23;20120;-87
2021/06/02 20:18:12;;;;;;;9.98;6.35;;;15.50;99.90;;;;;;6145196;23;20358;-87